Orwell — ORTV — position and weather

sailwx.info

Track history (hours):
 
Tides and Currents Weather Stations Pressure Air Temp Water Temp Dewpoint Dewpoint Depression Visibility Wind Speed Wind Dir Waves Ship Positions

Orwell

Last reported at 2018-Feb-04 18:44 UTC. Time now 2018-Feb-20 09:41 UTC.
Position N 06°25' E 003°27'.
Warning: this ship's position is 15 days out of date.

Length 90 m; draft 3 m.

Type: Dredging. MMSI: 205054000.

Date/timePositionNaut miles runAvg speedWind from/ knotsBaromVisibWave heightAir tempDewpointWater temp
2018-Feb-04 18:44N 06°25' E 003°27'0 0.0
2018-Feb-04 18:29N 06°25' E 003°27'0 0.0
2018-Feb-04 01:02N 06°25' E 003°27'0 0.0
2018-Feb-04 00:56N 06°25' E 003°27'0 0.0
2018-Feb-04 00:29N 06°25' E 003°27'0 0.0
2018-Feb-03 23:11N 06°25' E 003°27'0 0.0
2018-Feb-03 22:59N 06°25' E 003°27'0 0.0
2018-Feb-03 17:08N 06°25' E 003°27'0 0.0
2018-Feb-03 16:59N 06°25' E 003°27'0 0.0
2018-Feb-03 15:59N 06°25' E 003°27'0 0.0
2018-Feb-03 15:29N 06°25' E 003°27'0 0.0
2018-Feb-03 14:59N 06°25' E 003°27'0 0.0
2018-Feb-03 14:29N 06°25' E 003°27'0 0.0
2018-Feb-01 19:23N 06°25' E 003°27'0 0.0
2018-Feb-01 18:56N 06°25' E 003°27'0 0.0
2018-Feb-01 18:26N 06°25' E 003°27'0 0.0
2018-Feb-01 17:56N 06°25' E 003°27'0 0.0
2018-Feb-01 17:17N 06°25' E 003°27'0 0.0
2018-Feb-01 16:53N 06°25' E 003°27'0 0.0
2018-Feb-01 15:20N 06°25' E 003°27'0 0.0
2018-Feb-01 14:59N 06°25' E 003°27'0 0.0
2018-Feb-01 02:20N 06°25' E 003°27'0 0.0
2018-Feb-01 00:26N 06°25' E 003°27'0 0.0
2018-Jan-31 23:59N 06°25' E 003°27'0 0.0
2018-Jan-31 22:59N 06°25' E 003°27'0 0.0
2018-Jan-31 22:29N 06°25' E 003°27'0 0.0
2018-Jan-31 19:56N 06°25' E 003°27'0 0.0
2018-Jan-31 19:26N 06°25' E 003°27'0 0.0
2018-Jan-31 18:56N 06°25' E 003°27'40 1.5
2018-Jan-30 17:25N 06°21' E 004°06'2 4.9
2018-Jan-30 16:57N 06°24' E 004°06'1 0.1
2018-Jan-29 19:04N 06°22' E 004°06'0 2.5
2018-Jan-29 19:00N 06°22' E 004°06'1 1.8
2018-Jan-29 18:30N 06°21' E 004°06'2 4.0
2018-Jan-29 18:00N 06°23' E 004°06'1 2.7
2018-Jan-29 17:30N 06°24' E 004°06'2 0.1
2018-Jan-28 22:02N 06°23' E 004°06'2 7.2
2018-Jan-28 21:48N 06°24' E 004°06'0 0.2
2018-Jan-28 21:30N 06°25' E 004°06'0 0.0
2018-Jan-28 21:00N 06°25' E 004°06'1 1.5
2018-Jan-28 20:30N 06°24' E 004°06'3 4.2
2018-Jan-28 19:53N 06°21' E 004°06'0 0.2
2018-Jan-28 19:29N 06°21' E 004°06'2 5.0
2018-Jan-28 18:59N 06°24' E 004°06'1 0.5
2018-Jan-28 17:39N 06°24' E 004°05'1 6.2
2018-Jan-28 17:29N 06°23' E 004°06'2 4.0
2018-Jan-28 16:57N 06°21' E 004°06'1 1.7
2018-Jan-28 16:30N 06°22' E 004°06'1 0.1
2018-Jan-28 00:32N 06°23' E 004°06'0 8.0
2018-Jan-28 00:30N 06°23' E 004°06'2 3.2
2018-Jan-28 00:00N 06°21' E 004°06'0 0.5
2018-Jan-27 23:30N 06°22' E 004°06'3 5.6
2018-Jan-27 23:01N 06°24' E 004°06'3 0.4
2018-Jan-27 15:29N 06°21' E 004°06'1 0.2
2018-Jan-27 10:32N 06°23' E 004°06'0 7.4
2018-Jan-27 10:30N 06°22' E 004°06'1 2.3
2018-Jan-27 09:59N 06°21' E 004°06'1 1.8
2018-Jan-27 09:30N 06°22' E 004°06'0 0.0
2018-Jan-27 07:38N 06°22' E 004°06'1 3.4
2018-Jan-27 07:29N 06°22' E 004°06'0 0.2
2018-Jan-27 07:00N 06°21' E 004°06'1 2.7
2018-Jan-27 06:30N 06°23' E 004°06'2 3.2
2018-Jan-27 05:58N 06°24' E 004°06'0 0.0
2018-Jan-27 05:31N 06°24' E 004°06'0 0.0
2018-Jan-26 20:59N 06°24' E 004°06'3 5.6
2018-Jan-26 20:30N 06°22' E 004°06'1 1.5
2018-Jan-26 20:00N 06°21' E 004°06'3 4.1
2018-Jan-26 19:18N 06°24' E 004°06'1 1.8
2018-Jan-26 19:00N 06°24' E 004°06'0 0.0
2018-Jan-26 18:30N 06°24' E 004°06'1 1.0
2018-Jan-26 18:00N 06°24' E 004°06'3 5.4
2018-Jan-26 17:30N 06°21' E 004°06'0 0.5
2018-Jan-26 17:00N 06°22' E 004°06'2 4.2
2018-Jan-26 16:30N 06°24' E 004°06'1 0.9
2018-Jan-26 15:38N 06°24' E 004°06'0 0.1
2018-Jan-26 15:30N 06°24' E 004°06'1 2.6
2018-Jan-26 15:00N 06°23' E 004°06'2 3.7
2018-Jan-26 14:29N 06°21' E 004°06'1 1.5
2018-Jan-26 13:46N 06°22' E 004°06'2 0.2
2018-Jan-26 03:19N 06°24' E 004°06'0 0.1
2018-Jan-26 01:42N 06°24' E 004°05'  
Track history (hours):
 
Tides and Currents Weather Stations Pressure Air Temp Water Temp Dewpoint Dewpoint Depression Visibility Wind Speed Wind Dir Waves Ship Positions

Orwell

Last reported at 2018-Feb-04 18:44 UTC. Time now 2018-Feb-20 09:41 UTC.
Position N 06°25' E 003°27'.
Warning: this ship's position is 15 days out of date.

Length 90 m; draft 3 m.

Type: Dredging. MMSI: 205054000.

Date/timePositionNaut miles runAvg speedWind from/ knotsBaromVisibWave heightAir tempDewpointWater temp
2018-Feb-04 18:44N 06°25' E 003°27'0 0.0
2018-Feb-04 18:29N 06°25' E 003°27'0 0.0
2018-Feb-04 01:02N 06°25' E 003°27'0 0.0
2018-Feb-04 00:56N 06°25' E 003°27'0 0.0
2018-Feb-04 00:29N 06°25' E 003°27'0 0.0
2018-Feb-03 23:11N 06°25' E 003°27'0 0.0
2018-Feb-03 22:59N 06°25' E 003°27'0 0.0
2018-Feb-03 17:08N 06°25' E 003°27'0 0.0
2018-Feb-03 16:59N 06°25' E 003°27'0 0.0
2018-Feb-03 15:59N 06°25' E 003°27'0 0.0
2018-Feb-03 15:29N 06°25' E 003°27'0 0.0
2018-Feb-03 14:59N 06°25' E 003°27'0 0.0
2018-Feb-03 14:29N 06°25' E 003°27'0 0.0
2018-Feb-01 19:23N 06°25' E 003°27'0 0.0
2018-Feb-01 18:56N 06°25' E 003°27'0 0.0
2018-Feb-01 18:26N 06°25' E 003°27'0 0.0
2018-Feb-01 17:56N 06°25' E 003°27'0 0.0
2018-Feb-01 17:17N 06°25' E 003°27'0 0.0
2018-Feb-01 16:53N 06°25' E 003°27'0 0.0
2018-Feb-01 15:20N 06°25' E 003°27'0 0.0
2018-Feb-01 14:59N 06°25' E 003°27'0 0.0
2018-Feb-01 02:20N 06°25' E 003°27'0 0.0
2018-Feb-01 00:26N 06°25' E 003°27'0 0.0
2018-Jan-31 23:59N 06°25' E 003°27'0 0.0
2018-Jan-31 22:59N 06°25' E 003°27'0 0.0
2018-Jan-31 22:29N 06°25' E 003°27'0 0.0
2018-Jan-31 19:56N 06°25' E 003°27'0 0.0
2018-Jan-31 19:26N 06°25' E 003°27'0 0.0
2018-Jan-31 18:56N 06°25' E 003°27'40 1.5
2018-Jan-30 17:25N 06°21' E 004°06'2 4.9
2018-Jan-30 16:57N 06°24' E 004°06'1 0.1
2018-Jan-29 19:04N 06°22' E 004°06'0 2.5
2018-Jan-29 19:00N 06°22' E 004°06'1 1.8
2018-Jan-29 18:30N 06°21' E 004°06'2 4.0
2018-Jan-29 18:00N 06°23' E 004°06'1 2.7
2018-Jan-29 17:30N 06°24' E 004°06'2 0.1
2018-Jan-28 22:02N 06°23' E 004°06'2 7.2
2018-Jan-28 21:48N 06°24' E 004°06'0 0.2
2018-Jan-28 21:30N 06°25' E 004°06'0 0.0
2018-Jan-28 21:00N 06°25' E 004°06'1 1.5
2018-Jan-28 20:30N 06°24' E 004°06'3 4.2
2018-Jan-28 19:53N 06°21' E 004°06'0 0.2
2018-Jan-28 19:29N 06°21' E 004°06'2 5.0
2018-Jan-28 18:59N 06°24' E 004°06'1 0.5
2018-Jan-28 17:39N 06°24' E 004°05'1 6.2
2018-Jan-28 17:29N 06°23' E 004°06'2 4.0
2018-Jan-28 16:57N 06°21' E 004°06'1 1.7
2018-Jan-28 16:30N 06°22' E 004°06'1 0.1
2018-Jan-28 00:32N 06°23' E 004°06'0 8.0
2018-Jan-28 00:30N 06°23' E 004°06'2 3.2
2018-Jan-28 00:00N 06°21' E 004°06'0 0.5
2018-Jan-27 23:30N 06°22' E 004°06'3 5.6
2018-Jan-27 23:01N 06°24' E 004°06'3 0.4
2018-Jan-27 15:29N 06°21' E 004°06'1 0.2
2018-Jan-27 10:32N 06°23' E 004°06'0 7.4
2018-Jan-27 10:30N 06°22' E 004°06'1 2.3
2018-Jan-27 09:59N 06°21' E 004°06'1 1.8
2018-Jan-27 09:30N 06°22' E 004°06'0 0.0
2018-Jan-27 07:38N 06°22' E 004°06'1 3.4
2018-Jan-27 07:29N 06°22' E 004°06'0 0.2
2018-Jan-27 07:00N 06°21' E 004°06'1 2.7
2018-Jan-27 06:30N 06°23' E 004°06'2 3.2
2018-Jan-27 05:58N 06°24' E 004°06'0 0.0
2018-Jan-27 05:31N 06°24' E 004°06'0 0.0
2018-Jan-26 20:59N 06°24' E 004°06'3 5.6
2018-Jan-26 20:30N 06°22' E 004°06'1 1.5
2018-Jan-26 20:00N 06°21' E 004°06'3 4.1
2018-Jan-26 19:18N 06°24' E 004°06'1 1.8
2018-Jan-26 19:00N 06°24' E 004°06'0 0.0
2018-Jan-26 18:30N 06°24' E 004°06'1 1.0
2018-Jan-26 18:00N 06°24' E 004°06'3 5.4
2018-Jan-26 17:30N 06°21' E 004°06'0 0.5
2018-Jan-26 17:00N 06°22' E 004°06'2 4.2
2018-Jan-26 16:30N 06°24' E 004°06'1 0.9
2018-Jan-26 15:38N 06°24' E 004°06'0 0.1
2018-Jan-26 15:30N 06°24' E 004°06'1 2.6
2018-Jan-26 15:00N 06°23' E 004°06'2 3.7
2018-Jan-26 14:29N 06°21' E 004°06'1 1.5
2018-Jan-26 13:46N 06°22' E 004°06'2 0.2
2018-Jan-26 03:19N 06°24' E 004°06'0 0.1
2018-Jan-26 01:42N 06°24' E 004°05'  

Dump ship's entire track history